Time;durP1;ratioP1;P1;durP2;ratioP2;P2;SDS_P1;SDS_P2;PMS_P1;PMS_P2;Temp;Humidity;BMP_temperature;BMP_pressure;BME280_temperature;BME280_humidity;BME280_pressure;Samples;Min_cycle;Max_cycle;Signal;HPM_P1;HPM_P2
2022/03/06 00:00:46;;;;;;;2.90;2.17;;;15.30;79.20;;;;;;2004630;28;20176;-75
2022/03/06 00:01:45;;;;;;;3.17;1.90;;;15.20;79.20;;;;;;2004718;28;20259;-75
2022/03/06 00:02:43;;;;;;;2.50;1.63;;;15.20;78.90;;;;;;2004481;28;20657;-75
2022/03/06 00:03:44;;;;;;;3.17;2.27;;;15.30;79.20;;;;;;2004488;28;20181;-76
2022/03/06 00:04:42;;;;;;;2.75;1.90;;;15.30;79.30;;;;;;2004495;28;20169;-75
2022/03/06 00:05:41;;;;;;;3.00;1.83;;;15.20;78.80;;;;;;2004471;28;20205;-75
2022/03/06 00:06:40;;;;;;;4.77;2.20;;;15.20;78.90;;;;;;2004545;28;20180;-76
2022/03/06 00:07:38;;;;;;;3.50;2.60;;;15.20;78.90;;;;;;2004589;28;20209;-76
2022/03/06 00:08:37;;;;;;;4.33;2.10;;;15.30;79.30;;;;;;2004492;28;20655;-75
2022/03/06 00:09:35;;;;;;;2.80;2.17;;;15.30;79.10;;;;;;2004594;28;20177;-76
2022/03/06 00:10:35;;;;;;;8.63;2.63;;;15.20;79.00;;;;;;2004419;28;20196;-75
2022/03/06 00:11:33;;;;;;;3.25;2.38;;;15.20;79.10;;;;;;2004541;28;20542;-74
2022/03/06 00:12:32;;;;;;;2.30;1.83;;;15.30;79.20;;;;;;2004490;28;20173;-75
2022/03/06 00:13:32;;;;;;;3.30;2.33;;;15.30;79.20;;;;;;2004529;28;20183;-76
2022/03/06 00:14:30;;;;;;;2.63;2.20;;;15.20;78.90;;;;;;2004542;28;20169;-76
2022/03/06 00:15:29;;;;;;;3.60;2.03;;;15.20;79.00;;;;;;2004649;28;20235;-74
2022/03/06 00:16:27;;;;;;;3.53;1.97;;;15.20;78.70;;;;;;2004488;28;20196;-76
2022/03/06 00:17:26;;;;;;;3.37;2.17;;;15.20;79.00;;;;;;2004852;28;20176;-75
2022/03/06 00:18:24;;;;;;;3.90;2.07;;;15.20;78.70;;;;;;2005091;28;20165;-75
2022/03/06 00:19:23;;;;;;;3.77;2.17;;;15.20;79.00;;;;;;2005283;28;20204;-75
2022/03/06 00:20:22;;;;;;;3.23;2.27;;;15.10;78.90;;;;;;2005279;28;20538;-75
2022/03/06 00:21:21;;;;;;;2.50;1.90;;;15.20;79.00;;;;;;2005499;28;20183;-75
2022/03/06 00:22:19;;;;;;;3.87;2.73;;;15.30;79.00;;;;;;2009298;28;20187;-74
2022/03/06 00:23:19;;;;;;;6.97;2.10;;;15.20;79.00;;;;;;2013784;28;20258;-73
2022/03/06 00:24:18;;;;;;;2.58;1.70;;;15.20;79.20;;;;;;2013694;28;20168;-74
2022/03/06 00:25:16;;;;;;;3.63;2.17;;;15.20;79.10;;;;;;2013762;28;20604;-74
2022/03/06 00:26:15;;;;;;;3.13;1.73;;;15.20;79.50;;;;;;2013590;28;20188;-74
2022/03/06 00:27:13;;;;;;;4.77;2.30;;;15.20;79.10;;;;;;2006870;28;20648;-76
2022/03/06 00:28:12;;;;;;;3.33;1.93;;;15.20;79.10;;;;;;2006722;28;20200;-75
2022/03/06 00:29:11;;;;;;;2.93;2.10;;;15.20;79.20;;;;;;2006957;28;20185;-75
2022/03/06 00:30:11;;;;;;;3.43;1.83;;;15.20;78.90;;;;;;2006494;28;20408;-75
2022/03/06 00:31:09;;;;;;;3.97;2.30;;;15.20;79.10;;;;;;2004657;28;20181;-74
2022/03/06 00:32:08;;;;;;;2.83;1.73;;;15.20;79.20;;;;;;2004466;28;20177;-75
2022/03/06 00:33:06;;;;;;;3.57;2.43;;;15.20;79.10;;;;;;2003710;28;20539;-75
2022/03/06 00:34:05;;;;;;;2.90;2.47;;;15.30;79.30;;;;;;2003821;28;20604;-74
2022/03/06 00:35:05;;;;;;;2.80;2.30;;;15.20;79.00;;;;;;2004444;28;20580;-74
2022/03/06 00:36:03;;;;;;;6.35;3.50;;;15.20;79.40;;;;;;2004528;28;20760;-75
2022/03/06 00:37:04;;;;;;;4.30;1.97;;;15.20;79.20;;;;;;2004626;28;20209;-75
2022/03/06 00:38:03;;;;;;;4.53;2.13;;;15.30;79.50;;;;;;2004431;28;20852;-75
2022/03/06 00:39:02;;;;;;;4.73;2.87;;;15.20;79.30;;;;;;2004514;28;20173;-75
2022/03/06 00:40:02;;;;;;;5.23;2.03;;;15.20;79.00;;;;;;2004397;28;20745;-75
2022/03/06 00:41:02;;;;;;;3.85;2.40;;;15.20;79.10;;;;;;2004424;28;20404;-75
2022/03/06 00:42:01;;;;;;;3.38;2.15;;;15.20;79.20;;;;;;2004415;28;20640;-74
2022/03/06 00:43:00;;;;;;;3.17;1.90;;;15.20;79.10;;;;;;2004177;28;20204;-76
2022/03/06 00:43:58;;;;;;;3.92;2.50;;;15.30;79.00;;;;;;2004438;28;20506;-75
2022/03/06 00:44:57;;;;;;;2.60;1.90;;;15.20;79.10;;;;;;2004492;28;20173;-74
2022/03/06 00:45:55;;;;;;;2.97;1.80;;;15.20;79.10;;;;;;2004317;28;20279;-74
2022/03/06 00:46:54;;;;;;;4.20;2.57;;;15.20;79.20;;;;;;2004368;28;20264;-74
2022/03/06 00:47:52;;;;;;;4.10;2.60;;;15.20;78.90;;;;;;2004404;28;20618;-75
2022/03/06 00:48:51;;;;;;;2.60;1.80;;;15.20;79.00;;;;;;2004390;28;20680;-76
2022/03/06 00:49:49;;;;;;;3.87;2.47;;;15.20;79.20;;;;;;2004291;28;20538;-77
2022/03/06 00:50:48;;;;;;;4.07;2.33;;;15.20;79.00;;;;;;2004398;28;20632;-75
2022/03/06 00:51:46;;;;;;;5.10;2.70;;;15.20;79.30;;;;;;2004487;28;20214;-74
2022/03/06 00:52:45;;;;;;;3.70;2.30;;;15.20;79.30;;;;;;2004224;28;20234;-75
2022/03/06 00:53:43;;;;;;;3.83;2.53;;;15.20;79.30;;;;;;2004378;28;20216;-74
2022/03/06 00:54:42;;;;;;;3.97;2.00;;;15.20;79.30;;;;;;2004454;28;20181;-75
2022/03/06 00:55:41;;;;;;;4.20;2.13;;;15.20;79.10;;;;;;2004309;28;20244;-76
2022/03/06 00:56:39;;;;;;;5.37;2.30;;;15.20;79.20;;;;;;2003786;28;20177;-74
2022/03/06 00:57:38;;;;;;;1.90;1.70;;;15.20;79.20;;;;;;2003785;28;20603;-75
2022/03/06 00:58:37;;;;;;;3.63;2.30;;;15.20;79.80;;;;;;2003689;28;20718;-76
2022/03/06 00:59:36;;;;;;;3.47;2.38;;;15.30;79.20;;;;;;2003741;28;20176;-75
2022/03/06 01:00:39;;;;;;;3.93;2.60;;;15.20;78.90;;;;;;2003388;28;20577;-75
2022/03/06 01:01:39;;;;;;;3.85;2.45;;;15.20;79.40;;;;;;2003771;28;20181;-74
2022/03/06 01:02:37;;;;;;;4.30;2.63;;;15.10;79.50;;;;;;2004219;28;20281;-76
2022/03/06 01:03:37;;;;;;;3.33;2.00;;;15.10;79.20;;;;;;2004412;28;20317;-75
2022/03/06 01:04:37;;;;;;;3.05;2.55;;;15.20;79.30;;;;;;2004503;28;20173;-74
2022/03/06 01:05:36;;;;;;;2.30;1.90;;;15.20;79.20;;;;;;2004181;28;20231;-75
2022/03/06 01:06:35;;;;;;;2.60;2.17;;;15.20;79.10;;;;;;2004409;28;20180;-75
2022/03/06 01:07:34;;;;;;;3.90;2.63;;;15.20;79.20;;;;;;2004365;28;20636;-75
2022/03/06 01:08:34;;;;;;;3.20;2.73;;;15.20;79.20;;;;;;2004426;28;20205;-75
2022/03/06 01:09:33;;;;;;;5.50;2.53;;;15.20;79.30;;;;;;2004753;28;20173;-74
2022/03/06 01:10:33;;;;;;;2.73;2.20;;;15.20;79.40;;;;;;2005672;28;20177;-75
2022/03/06 01:11:34;;;;;;;4.38;2.30;;;15.20;79.70;;;;;;2005735;28;20408;-75
2022/03/06 01:12:33;;;;;;;2.95;2.20;;;15.20;79.50;;;;;;2005780;28;20208;-75
2022/03/06 01:13:31;;;;;;;2.97;2.10;;;15.10;78.90;;;;;;2005704;28;20636;-75
2022/03/06 01:14:30;;;;;;;3.23;2.10;;;15.10;79.30;;;;;;2005698;28;20169;-74
2022/03/06 01:15:29;;;;;;;4.20;2.63;;;15.10;79.20;;;;;;2005768;28;20177;-75
2022/03/06 01:16:27;;;;;;;2.67;2.20;;;15.10;80.10;;;;;;2005752;28;20185;-75
2022/03/06 01:17:25;;;;;;;3.33;2.33;;;15.10;79.20;;;;;;2005761;28;20181;-74
2022/03/06 01:18:24;;;;;;;5.57;2.20;;;15.10;79.40;;;;;;2005921;28;20529;-75
2022/03/06 01:19:22;;;;;;;3.90;2.00;;;15.10;79.30;;;;;;2005809;28;20511;-75
2022/03/06 01:20:23;;;;;;;3.10;2.17;;;15.10;78.90;;;;;;2005799;28;20188;-75
2022/03/06 01:21:22;;;;;;;4.93;2.33;;;15.20;79.60;;;;;;2005016;28;20675;-76
2022/03/06 01:22:20;;;;;;;3.03;2.00;;;15.10;79.10;;;;;;2005085;28;20533;-76
2022/03/06 01:23:19;;;;;;;2.70;2.03;;;15.10;79.20;;;;;;2005625;28;20223;-75
2022/03/06 01:24:17;;;;;;;3.10;2.20;;;15.10;78.90;;;;;;2005030;28;20184;-76
2022/03/06 01:25:16;;;;;;;3.00;2.40;;;15.10;79.40;;;;;;2005037;28;20177;-75
2022/03/06 01:26:17;;;;;;;4.77;2.53;;;15.10;79.40;;;;;;2005780;28;20165;-75
2022/03/06 01:27:16;;;;;;;2.20;1.90;;;15.10;80.00;;;;;;2005813;28;20169;-75
2022/03/06 01:28:14;;;;;;;2.17;1.97;;;15.10;79.20;;;;;;2005625;28;20619;-75
2022/03/06 01:29:13;;;;;;;3.23;2.17;;;15.10;79.00;;;;;;2005045;28;20184;-75
2022/03/06 01:30:15;;;;;;;3.83;2.17;;;15.10;79.40;;;;;;2005068;28;20252;-75
2022/03/06 01:31:13;;;;;;;4.13;2.40;;;15.10;79.70;;;;;;2005000;28;20224;-75
2022/03/06 01:32:12;;;;;;;3.50;2.50;;;15.10;79.70;;;;;;2005141;28;20208;-75
2022/03/06 01:33:10;;;;;;;2.77;2.10;;;15.10;79.30;;;;;;2005621;28;20189;-75
2022/03/06 01:34:09;;;;;;;5.70;3.17;;;15.00;79.20;;;;;;2005520;28;20188;-74
2022/03/06 01:35:08;;;;;;;3.43;1.90;;;15.10;79.30;;;;;;2005610;28;20169;-75
2022/03/06 01:36:07;;;;;;;3.47;2.30;;;15.00;80.20;;;;;;2005670;28;20633;-76
2022/03/06 01:37:05;;;;;;;3.90;2.43;;;15.00;79.40;;;;;;2005629;28;20252;-75
2022/03/06 01:38:04;;;;;;;1.90;1.60;;;15.00;79.50;;;;;;2005556;28;20484;-76
2022/03/06 01:39:03;;;;;;;3.57;2.10;;;15.10;79.50;;;;;;2005550;28;20514;-75
2022/03/06 01:40:03;;;;;;;3.83;2.60;;;15.10;79.50;;;;;;2005533;28;20199;-76
2022/03/06 01:41:02;;;;;;;2.50;1.98;;;15.00;79.60;;;;;;2005504;28;20212;-75
2022/03/06 01:42:01;;;;;;;4.18;2.28;;;15.00;79.70;;;;;;2005635;28;20269;-76
2022/03/06 01:43:00;;;;;;;2.70;2.20;;;15.10;79.80;;;;;;2004640;28;20621;-75
2022/03/06 01:43:58;;;;;;;2.63;1.93;;;15.10;79.40;;;;;;2005199;28;20256;-76
2022/03/06 01:44:58;;;;;;;2.30;1.90;;;15.00;79.20;;;;;;2005535;28;20193;-75
2022/03/06 01:45:56;;;;;;;2.80;2.50;;;15.00;79.70;;;;;;2005573;28;20296;-75
2022/03/06 01:46:55;;;;;;;3.07;2.30;;;15.00;79.60;;;;;;2005531;28;20177;-75
2022/03/06 01:47:55;;;;;;;4.47;2.63;;;15.00;79.40;;;;;;2005490;28;20180;-76
2022/03/06 01:48:53;;;;;;;3.47;2.00;;;15.00;79.60;;;;;;2004831;28;20172;-75
2022/03/06 01:49:52;;;;;;;3.60;2.10;;;15.00;79.20;;;;;;2004892;28;20261;-75
2022/03/06 01:50:50;;;;;;;8.40;2.00;;;15.00;79.30;;;;;;2005534;28;20672;-76
2022/03/06 01:51:49;;;;;;;3.77;2.10;;;15.00;79.60;;;;;;2005564;28;20184;-76
2022/03/06 01:52:49;;;;;;;3.30;1.90;;;15.00;79.80;;;;;;2005368;28;20196;-75
2022/03/06 01:53:48;;;;;;;6.65;2.47;;;15.10;79.70;;;;;;2005332;28;20184;-76
2022/03/06 01:54:46;;;;;;;4.03;2.30;;;15.00;79.50;;;;;;2005613;28;20191;-76
2022/03/06 01:55:45;;;;;;;2.57;1.80;;;15.00;79.30;;;;;;2004759;28;20229;-74
2022/03/06 01:56:43;;;;;;;2.60;2.00;;;15.00;79.50;;;;;;2004793;28;20280;-75
2022/03/06 01:57:43;;;;;;;3.30;2.20;;;15.00;79.30;;;;;;2004727;28;20181;-75
2022/03/06 01:58:42;;;;;;;3.13;2.38;;;15.00;79.60;;;;;;2004862;28;20184;-74
2022/03/06 01:59:40;;;;;;;5.07;2.97;;;15.00;79.60;;;;;;2005408;28;20183;-75
2022/03/06 02:00:44;;;;;;;2.70;1.90;;;15.00;79.50;;;;;;2005405;28;20240;-75
2022/03/06 02:01:42;;;;;;;2.05;1.70;;;15.00;79.80;;;;;;2005516;28;20165;-75
2022/03/06 02:02:41;;;;;;;5.07;2.23;;;15.00;79.50;;;;;;2005331;28;20193;-75
2022/03/06 02:03:40;;;;;;;3.47;2.15;;;15.00;79.60;;;;;;2004723;28;20268;-75
2022/03/06 02:04:38;;;;;;;3.00;2.23;;;15.00;79.50;;;;;;2004888;28;20239;-74
2022/03/06 02:05:38;;;;;;;2.93;1.90;;;15.00;79.60;;;;;;2005317;28;20754;-75
2022/03/06 02:06:38;;;;;;;4.45;2.28;;;15.00;79.60;;;;;;2005354;28;20165;-76
2022/03/06 02:07:37;;;;;;;3.40;2.15;;;15.10;79.80;;;;;;2004687;28;20181;-74
2022/03/06 02:08:35;;;;;;;4.73;2.50;;;15.00;79.60;;;;;;2004854;28;20205;-75
2022/03/06 02:09:34;;;;;;;2.10;1.60;;;15.10;79.50;;;;;;2005302;28;20172;-75
2022/03/06 02:10:33;;;;;;;3.43;2.33;;;15.00;79.50;;;;;;2005386;28;20168;-75
2022/03/06 02:11:32;;;;;;;3.28;2.08;;;15.00;79.80;;;;;;2005406;28;20169;-76
2022/03/06 02:12:32;;;;;;;4.30;1.97;;;15.00;79.80;;;;;;2005359;28;20629;-75
2022/03/06 02:13:30;;;;;;;2.88;1.80;;;15.00;80.10;;;;;;2005320;28;20208;-76
2022/03/06 02:14:29;;;;;;;3.43;2.00;;;14.90;79.40;;;;;;2004617;28;20184;-75
2022/03/06 02:15:28;;;;;;;3.23;2.10;;;15.00;79.60;;;;;;2004731;28;20253;-75
2022/03/06 02:16:26;;;;;;;2.80;1.93;;;14.90;79.60;;;;;;2005233;28;20177;-75
2022/03/06 02:17:26;;;;;;;4.37;2.10;;;14.90;79.50;;;;;;2005475;28;20169;-75
2022/03/06 02:18:24;;;;;;;2.65;1.95;;;14.90;79.80;;;;;;2005287;28;20233;-75
2022/03/06 02:19:23;;;;;;;3.97;1.83;;;15.00;79.70;;;;;;2005300;28;20738;-75
2022/03/06 02:20:24;;;;;;;3.77;2.40;;;15.00;79.60;;;;;;2005368;28;20199;-76
2022/03/06 02:21:22;;;;;;;2.35;1.65;;;15.00;80.10;;;;;;2004708;28;20170;-75
2022/03/06 02:22:30;;;;;;;5.80;2.17;;;15.00;79.60;;;;;;2005263;28;20538;-75
2022/03/06 02:23:32;;;;;;;4.63;2.45;;;15.00;80.60;;;;;;2004768;28;20185;-75
2022/03/06 02:24:31;;;;;;;2.30;1.80;;;15.00;79.80;;;;;;2004731;28;20174;-76
2022/03/06 02:25:34;;;;;;;2.90;2.47;;;15.00;79.70;;;;;;2005110;28;20216;-75
2022/03/06 02:26:32;;;;;;;3.35;2.33;;;15.00;79.90;;;;;;2005228;28;20170;-75
2022/03/06 02:27:31;;;;;;;4.17;2.13;;;15.00;79.60;;;;;;2005241;28;20173;-76
2022/03/06 02:28:30;;;;;;;4.33;2.20;;;15.00;79.70;;;;;;2004434;28;20271;-76
2022/03/06 02:29:28;;;;;;;3.07;1.90;;;15.00;79.90;;;;;;2004487;28;20177;-75
2022/03/06 02:30:32;;;;;;;2.90;1.93;;;15.00;79.70;;;;;;2004721;28;20169;-75
2022/03/06 02:31:30;;;;;;;6.18;1.92;;;15.00;80.00;;;;;;2005291;28;20496;-76
2022/03/06 02:32:29;;;;;;;3.27;1.90;;;15.00;79.80;;;;;;2005024;28;20235;-75
2022/03/06 02:33:28;;;;;;;2.13;1.67;;;14.90;79.40;;;;;;2005174;28;20197;-76
2022/03/06 02:34:28;;;;;;;2.60;2.00;;;15.00;80.00;;;;;;2005124;28;20264;-75
2022/03/06 02:35:27;;;;;;;3.20;2.20;;;14.90;79.90;;;;;;2005200;28;20251;-76
2022/03/06 02:36:25;;;;;;;2.40;1.90;;;14.90;79.70;;;;;;2005142;28;20174;-76
2022/03/06 02:37:24;;;;;;;3.13;2.27;;;14.90;79.80;;;;;;2004444;28;20232;-75
2022/03/06 02:38:22;;;;;;;2.00;1.60;;;15.00;79.80;;;;;;2004524;28;20176;-76
2022/03/06 02:39:24;;;;;;;2.50;1.70;;;14.90;79.70;;;;;;2005093;28;20169;-75
2022/03/06 02:40:23;;;;;;;1.98;1.63;;;14.90;79.70;;;;;;2005243;28;20180;-75
2022/03/06 02:41:21;;;;;;;3.23;2.07;;;14.90;79.90;;;;;;2005127;28;20651;-76
2022/03/06 02:42:27;;;;;;;2.10;1.60;;;14.90;79.80;;;;;;2005230;28;20197;-75
2022/03/06 02:43:26;;;;;;;3.42;2.10;;;14.90;80.10;;;;;;2004871;28;20225;-74
2022/03/06 02:44:25;;;;;;;2.00;1.50;;;14.90;79.80;;;;;;2005121;28;20201;-74
2022/03/06 02:45:26;;;;;;;3.00;2.17;;;14.90;80.10;;;;;;2005028;28;20193;-74
2022/03/06 02:46:25;;;;;;;3.35;2.20;;;14.90;80.10;;;;;;2005020;28;20451;-75
2022/03/06 02:47:24;;;;;;;2.57;1.90;;;14.90;79.90;;;;;;2005103;28;20219;-74
2022/03/06 02:48:22;;;;;;;2.63;1.90;;;14.90;80.00;;;;;;2005120;28;20699;-74
2022/03/06 02:49:21;;;;;;;1.77;1.63;;;14.90;80.00;;;;;;2005023;28;20809;-74
2022/03/06 02:50:29;;;;;;;2.60;1.70;;;14.90;80.00;;;;;;2004963;28;20180;-75
2022/03/06 02:51:27;;;;;;;4.22;2.20;;;14.90;80.00;;;;;;2004359;28;20173;-74
2022/03/06 02:52:26;;;;;;;2.97;1.70;;;14.90;80.00;;;;;;2004336;28;20177;-74
2022/03/06 02:53:25;;;;;;;3.87;2.30;;;14.90;80.10;;;;;;2005009;28;20170;-74
2022/03/06 02:54:24;;;;;;;2.97;2.00;;;14.90;80.00;;;;;;2004897;28;20575;-74
2022/03/06 02:55:23;;;;;;;2.80;2.17;;;14.90;80.20;;;;;;2004543;28;20263;-74
2022/03/06 02:56:21;;;;;;;3.50;1.92;;;14.90;80.50;;;;;;2004476;28;20177;-74
2022/03/06 02:57:20;;;;;;;3.30;1.80;;;14.90;80.30;;;;;;2003967;28;20570;-75
2022/03/06 02:58:19;;;;;;;2.50;1.80;;;14.90;80.10;;;;;;2004393;28;20169;-75
2022/03/06 02:59:18;;;;;;;3.10;2.00;;;14.90;80.10;;;;;;2004901;28;20196;-75
2022/03/06 03:00:18;;;;;;;2.87;1.80;;;14.90;80.30;;;;;;2004900;28;20541;-74
2022/03/06 03:01:16;;;;;;;2.05;1.80;;;14.90;80.60;;;;;;2004902;28;20157;-75
2022/03/06 03:02:15;;;;;;;2.23;1.63;;;15.00;80.20;;;;;;2005146;28;20208;-74
2022/03/06 03:03:13;;;;;;;3.23;2.07;;;14.90;80.20;;;;;;2005000;28;20189;-75
2022/03/06 03:04:12;;;;;;;3.20;2.00;;;14.90;80.20;;;;;;2004244;28;20174;-74
2022/03/06 03:05:12;;;;;;;3.20;2.00;;;14.90;80.40;;;;;;2004422;28;20195;-74
2022/03/06 03:06:10;;;;;;;4.82;2.70;;;14.90;80.80;;;;;;2004872;28;20557;-74
2022/03/06 03:07:09;;;;;;;2.10;1.43;;;14.90;80.60;;;;;;2004933;28;20185;-75
2022/03/06 03:08:08;;;;;;;2.10;1.67;;;15.00;80.60;;;;;;2004272;28;20699;-74
2022/03/06 03:09:07;;;;;;;1.97;1.43;;;14.90;80.70;;;;;;1996286;28;20876;-74
2022/03/06 03:10:22;;;;;;;4.68;2.00;;;14.80;80.70;;;;;;2003975;28;20593;-74
2022/03/06 03:11:20;;;;;;;2.20;1.58;;;14.90;82.30;;;;;;2004941;28;20149;-74
2022/03/06 03:12:19;;;;;;;1.90;1.70;;;14.90;80.80;;;;;;2004868;28;20169;-74
2022/03/06 03:13:17;;;;;;;2.37;1.77;;;14.80;81.00;;;;;;2004843;28;20184;-75
2022/03/06 03:14:17;;;;;;;2.53;1.97;;;14.80;81.00;;;;;;2004832;28;20584;-74
2022/03/06 03:15:15;;;;;;;3.90;1.95;;;14.90;81.30;;;;;;2004835;28;20171;-75
2022/03/06 03:16:14;;;;;;;4.77;2.07;;;14.80;80.90;;;;;;2004201;28;20192;-75
2022/03/06 03:17:12;;;;;;;2.90;2.03;;;14.80;81.20;;;;;;2004523;28;20236;-74
2022/03/06 03:18:11;;;;;;;2.10;1.53;;;14.80;81.40;;;;;;2004817;28;20177;-75
2022/03/06 03:19:09;;;;;;;2.33;1.70;;;14.80;81.50;;;;;;2004964;28;20200;-75
2022/03/06 03:20:09;;;;;;;6.23;1.87;;;14.90;81.60;;;;;;2004861;28;20255;-75
2022/03/06 03:21:08;;;;;;;2.20;2.00;;;14.90;81.90;;;;;;2004769;28;20886;-74
2022/03/06 03:22:06;;;;;;;2.30;1.70;;;14.90;81.80;;;;;;2004790;28;20185;-74
2022/03/06 03:23:05;;;;;;;3.00;1.90;;;14.90;82.10;;;;;;2004022;28;20669;-74
2022/03/06 03:24:03;;;;;;;2.30;1.53;;;14.90;82.40;;;;;;2004250;28;20240;-74
2022/03/06 03:25:03;;;;;;;2.37;1.80;;;14.90;82.50;;;;;;2004718;28;20267;-74
2022/03/06 03:26:02;;;;;;;3.10;1.98;;;14.90;82.00;;;;;;2004947;28;20451;-76
2022/03/06 03:27:00;;;;;;;2.80;1.40;;;14.90;81.60;;;;;;2004719;28;20181;-74
2022/03/06 03:27:59;;;;;;;2.87;2.10;;;14.90;82.00;;;;;;2004907;28;20181;-76
2022/03/06 03:28:58;;;;;;;3.23;2.27;;;14.80;81.80;;;;;;2004791;28;20183;-76
2022/03/06 03:29:56;;;;;;;2.38;1.52;;;14.80;82.10;;;;;;2004803;28;20165;-75
2022/03/06 03:30:55;;;;;;;6.00;2.03;;;14.80;81.80;;;;;;2004987;28;20712;-74
2022/03/06 03:31:53;;;;;;;2.80;1.57;;;14.80;82.00;;;;;;2004717;28;20204;-75
2022/03/06 03:32:52;;;;;;;2.00;1.50;;;14.80;81.80;;;;;;2004262;28;20216;-76
2022/03/06 03:33:50;;;;;;;2.43;1.90;;;14.80;81.60;;;;;;2004506;28;20200;-75
2022/03/06 03:34:49;;;;;;;2.60;1.80;;;14.80;81.80;;;;;;2004677;28;20172;-75
2022/03/06 03:35:47;;;;;;;3.20;1.90;;;14.80;81.40;;;;;;2004052;28;20317;-75
2022/03/06 03:36:46;;;;;;;1.70;1.60;;;14.80;81.80;;;;;;2004172;28;20188;-74
2022/03/06 03:37:44;;;;;;;4.30;2.10;;;14.80;81.50;;;;;;2004083;28;20177;-74
2022/03/06 03:38:43;;;;;;;3.70;2.17;;;14.80;81.80;;;;;;2004265;28;20597;-75
2022/03/06 03:39:41;;;;;;;1.97;1.60;;;14.80;81.60;;;;;;2004685;28;20173;-75
2022/03/06 03:40:40;;;;;;;1.80;1.50;;;14.80;81.70;;;;;;2004673;28;20169;-75
2022/03/06 03:41:38;;;;;;;2.10;1.80;;;14.80;81.60;;;;;;2004804;28;20227;-74
2022/03/06 03:42:37;;;;;;;2.27;1.47;;;14.80;81.60;;;;;;2004624;28;20177;-74
2022/03/06 03:43:35;;;;;;;2.60;2.10;;;14.80;81.70;;;;;;2004566;28;20228;-75
2022/03/06 03:44:34;;;;;;;3.93;2.03;;;14.80;81.70;;;;;;2004660;28;20609;-75
2022/03/06 03:45:32;;;;;;;2.53;1.67;;;14.80;82.30;;;;;;2004774;28;20196;-73
2022/03/06 03:46:31;;;;;;;3.07;1.80;;;14.80;81.60;;;;;;2004700;28;20307;-74
2022/03/06 03:47:30;;;;;;;2.80;1.97;;;14.90;81.70;;;;;;2004723;28;20173;-75
2022/03/06 03:48:29;;;;;;;3.87;1.93;;;14.80;81.90;;;;;;2004813;28;20609;-75
2022/03/06 03:49:28;;;;;;;2.60;1.80;;;14.90;81.90;;;;;;2004756;28;20168;-75
2022/03/06 03:50:26;;;;;;;2.10;1.47;;;14.90;81.70;;;;;;2004584;28;20176;-74
2022/03/06 03:51:25;;;;;;;3.13;2.10;;;14.80;81.40;;;;;;2004726;28;20246;-76
2022/03/06 03:52:23;;;;;;;2.57;2.20;;;14.80;82.10;;;;;;2004677;28;20173;-74
2022/03/06 03:53:22;;;;;;;3.13;1.90;;;14.80;81.60;;;;;;2004665;28;20758;-75
2022/03/06 03:54:21;;;;;;;1.90;1.47;;;14.90;81.60;;;;;;2004665;28;20177;-74
2022/03/06 03:57:16;;;;;;;2.50;1.92;;;14.80;81.90;;;;;;2004672;28;20153;-75
2022/03/06 03:58:14;;;;;;;2.97;1.70;;;14.80;81.40;;;;;;2004592;28;20255;-75
2022/03/06 03:59:13;;;;;;;2.57;2.10;;;14.80;81.90;;;;;;2004697;28;20177;-74
2022/03/06 04:00:11;;;;;;;2.30;1.83;;;14.80;81.60;;;;;;2004552;28;20315;-76
2022/03/06 04:01:10;;;;;;;3.20;2.03;;;14.80;81.60;;;;;;2003903;28;20177;-74
2022/03/06 04:02:08;;;;;;;3.37;1.80;;;14.80;81.90;;;;;;2004006;28;20230;-75
2022/03/06 04:03:07;;;;;;;2.70;1.77;;;14.80;81.80;;;;;;2004533;28;20220;-75
2022/03/06 04:04:06;;;;;;;2.13;1.93;;;14.80;81.80;;;;;;2004605;28;20176;-76
2022/03/06 04:05:05;;;;;;;2.63;1.83;;;14.80;82.10;;;;;;2004546;28;20835;-76
2022/03/06 04:06:03;;;;;;;2.53;1.70;;;14.80;82.70;;;;;;2004583;28;20193;-75
2022/03/06 04:07:02;;;;;;;2.10;1.40;;;14.80;82.50;;;;;;2004536;28;20439;-75
2022/03/06 04:08:01;;;;;;;3.37;2.13;;;14.80;82.30;;;;;;2004715;28;20206;-76
2022/03/06 04:08:59;;;;;;;2.73;1.57;;;14.80;82.10;;;;;;2004599;28;20211;-75
2022/03/06 04:09:58;;;;;;;1.63;1.53;;;14.80;82.30;;;;;;2004652;28;20542;-75
2022/03/06 04:10:59;;;;;;;1.50;1.40;;;14.80;82.60;;;;;;2004550;28;20616;-75
2022/03/06 04:11:57;;;;;;;2.45;1.75;;;14.70;82.50;;;;;;2004548;28;20252;-76
2022/03/06 04:12:56;;;;;;;2.33;2.13;;;14.80;82.60;;;;;;2003848;28;20201;-75
2022/03/06 04:13:54;;;;;;;1.97;1.70;;;14.80;82.60;;;;;;2004037;28;20230;-76
2022/03/06 04:14:53;;;;;;;2.50;1.87;;;14.80;82.60;;;;;;2003310;28;20172;-76
2022/03/06 04:15:52;;;;;;;2.10;1.50;;;14.70;82.40;;;;;;2003972;28;20169;-75
2022/03/06 04:16:50;;;;;;;2.63;2.00;;;14.70;82.50;;;;;;2003424;28;20177;-75
2022/03/06 04:17:49;;;;;;;3.30;1.97;;;14.80;82.40;;;;;;2004069;28;20179;-75
2022/03/06 04:18:47;;;;;;;3.10;1.53;;;14.70;82.80;;;;;;2004802;28;20204;-75
2022/03/06 04:19:46;;;;;;;2.50;1.60;;;14.70;82.90;;;;;;2004526;28;20648;-75
2022/03/06 04:20:44;;;;;;;3.23;2.07;;;14.70;82.80;;;;;;2003891;28;20232;-75
2022/03/06 04:21:43;;;;;;;2.97;1.93;;;14.70;82.50;;;;;;2003999;28;20240;-75
2022/03/06 04:22:41;;;;;;;1.73;1.47;;;14.70;82.70;;;;;;2004583;28;20263;-75
2022/03/06 04:23:40;;;;;;;1.60;1.50;;;14.80;83.40;;;;;;2003740;28;20185;-75
2022/03/06 04:24:38;;;;;;;8.40;2.03;;;14.70;83.10;;;;;;2003962;28;20177;-75
2022/03/06 04:25:37;;;;;;;2.20;1.53;;;14.80;83.30;;;;;;2004387;28;20192;-75
2022/03/06 04:26:36;;;;;;;1.80;1.50;;;14.70;82.90;;;;;;2003936;28;20195;-75
2022/03/06 04:27:34;;;;;;;1.67;1.57;;;14.70;82.50;;;;;;2004041;28;20173;-77
2022/03/06 04:28:33;;;;;;;1.60;1.43;;;14.70;82.20;;;;;;2004502;28;20165;-75
2022/03/06 04:29:31;;;;;;;2.40;1.63;;;14.70;82.50;;;;;;2004455;28;20169;-74
2022/03/06 04:30:30;;;;;;;2.20;1.83;;;14.80;82.10;;;;;;2004678;28;20173;-75
2022/03/06 04:31:28;;;;;;;2.33;1.80;;;14.70;82.10;;;;;;2004624;28;20625;-74
2022/03/06 04:32:27;;;;;;;1.80;1.50;;;14.80;81.80;;;;;;2004614;28;20607;-75
2022/03/06 04:33:25;;;;;;;1.83;1.63;;;14.80;82.00;;;;;;2004503;28;20579;-75
2022/03/06 04:34:24;;;;;;;2.63;1.50;;;14.80;82.00;;;;;;2004561;28;20169;-75
2022/03/06 04:35:23;;;;;;;2.30;1.73;;;14.80;81.70;;;;;;2004484;28;20169;-75
2022/03/06 04:36:21;;;;;;;2.17;1.87;;;14.70;81.80;;;;;;2004537;28;20169;-74
2022/03/06 04:37:20;;;;;;;1.97;1.40;;;14.80;82.10;;;;;;2003800;28;20176;-75
2022/03/06 04:38:18;;;;;;;2.90;1.93;;;14.80;82.00;;;;;;2004109;28;20250;-74
2022/03/06 04:39:17;;;;;;;3.90;1.70;;;14.70;81.80;;;;;;2004456;28;20176;-74
2022/03/06 04:40:15;;;;;;;2.20;1.37;;;14.80;81.60;;;;;;2003781;28;20177;-75
2022/03/06 04:41:15;;;;;;;2.37;1.50;;;14.70;81.50;;;;;;2003931;28;20237;-76
2022/03/06 04:42:14;;;;;;;2.13;1.63;;;14.70;82.00;;;;;;2004578;28;20157;-75
2022/03/06 04:43:12;;;;;;;2.20;1.60;;;14.70;81.70;;;;;;2004217;28;20676;-75
2022/03/06 04:44:13;;;;;;;2.17;1.58;;;14.70;81.60;;;;;;2004417;28;20201;-76
2022/03/06 04:45:11;;;;;;;2.38;1.92;;;14.70;81.70;;;;;;2006017;28;20207;-75
2022/03/06 04:46:11;;;;;;;2.07;1.87;;;14.80;81.90;;;;;;2006046;28;20208;-75
2022/03/06 04:47:09;;;;;;;1.63;1.30;;;14.70;82.00;;;;;;2005948;28;20187;-75
2022/03/06 04:48:08;;;;;;;1.53;1.20;;;14.70;81.20;;;;;;2006093;28;20543;-76
2022/03/06 04:49:06;;;;;;;2.37;1.40;;;14.70;81.50;;;;;;2006152;28;20530;-75
2022/03/06 04:50:05;;;;;;;1.87;1.40;;;14.80;81.80;;;;;;2006061;28;20174;-75
2022/03/06 04:51:04;;;;;;;2.97;1.67;;;14.70;81.70;;;;;;2006095;28;20588;-75
2022/03/06 04:52:03;;;;;;;4.37;1.80;;;14.70;81.70;;;;;;2005941;28;20196;-76
2022/03/06 04:53:02;;;;;;;2.88;1.65;;;14.70;82.20;;;;;;2005892;28;20243;-75
2022/03/06 04:54:00;;;;;;;2.03;1.83;;;14.70;82.00;;;;;;2005928;28;20232;-75
2022/03/06 04:54:59;;;;;;;2.37;1.70;;;14.70;81.80;;;;;;2005989;28;20181;-75
2022/03/06 04:55:57;;;;;;;1.67;1.57;;;14.60;81.60;;;;;;2006004;28;20260;-75
2022/03/06 04:56:56;;;;;;;3.80;1.20;;;14.70;81.60;;;;;;2005939;28;20173;-75
2022/03/06 04:57:54;;;;;;;1.60;1.43;;;14.70;81.60;;;;;;2005929;28;20712;-75
2022/03/06 04:58:53;;;;;;;2.70;1.87;;;14.70;81.50;;;;;;2006017;28;20546;-75
2022/03/06 04:59:51;;;;;;;1.47;1.37;;;14.70;81.70;;;;;;2005928;28;20213;-75
2022/03/06 05:00:50;;;;;;;2.37;1.53;;;14.70;81.10;;;;;;2005905;28;20185;-74
2022/03/06 05:01:48;;;;;;;1.37;1.27;;;14.70;81.40;;;;;;2005912;28;20173;-75
2022/03/06 05:02:47;;;;;;;2.43;1.60;;;14.70;81.70;;;;;;2005836;28;20664;-74
2022/03/06 05:03:45;;;;;;;3.50;1.60;;;14.70;82.00;;;;;;2005893;28;20224;-76
2022/03/06 05:04:44;;;;;;;3.20;1.90;;;14.70;81.70;;;;;;2005815;28;20212;-75
2022/03/06 05:05:42;;;;;;;2.40;1.57;;;14.70;83.00;;;;;;2005890;28;20208;-75
2022/03/06 05:06:41;;;;;;;3.10;1.70;;;14.70;82.10;;;;;;2005884;28;20256;-75
2022/03/06 05:07:39;;;;;;;1.87;1.60;;;14.70;81.40;;;;;;2005851;28;20172;-74
2022/03/06 05:08:38;;;;;;;2.13;1.67;;;14.70;81.40;;;;;;2005923;28;20173;-76
2022/03/06 05:09:36;;;;;;;1.93;1.77;;;14.70;81.60;;;;;;2005848;28;20165;-76